Aérodrome :
LOGIN :

S'inscrire | Disclaimer

   EN    FR    IT 

 










Légende :    VFR   VFR Marginal   IFR   IFR Intensif   IFR Très Intensif
Visi : 
Plafond : 
>= 8 km
>= 3000ft
5 à 8 km
1000 à 3000 ft
1500m à 5 km
500 à 1000 ft
800 à 1500m
200 à 500 ft
< 800m
< 200 ft
Symboles :   Orages  Brouillard  Fortes neiges  Fortes précipitations  Vent > 20 kt
SIGMETs :   Divers  Orages  Givrage  Turbulence  Onde Orograph.  Cendres Volcan.






- Altitude de l'aérodrome : 53 ft
- Code IATA : HAM


EDDH - Hamburg

DERNIER METAR :
  • 241120Z AUTO 22008KT 9999 FEW023 OVC049 08/03 Q0999 NOSIG

METARs EXPIRÉS :
  • 241050Z AUTO 21011KT 9999 FEW026 07/03 Q0999 NOSIG
  • 241020Z AUTO 16005KT 110V190 CAVOK 07/03 Q0999 NOSIG
  • 240950Z AUTO 16007KT 140V200 9999 SCT042 06/02 Q0999 NOSIG
  • 240920Z AUTO 16006KT 9999 FEW040 05/02 Q0999 NOSIG
  • 240850Z AUTO 16005KT 120V200 9999 FEW033 05/02 Q0998 TEMPO 21012KT SHRA BKN020CB
  • 240820Z AUTO 16006KT 9999 FEW035 04/01 Q0998 NOSIG
  • 240750Z AUTO 16006KT 9999 BKN034 04/01 Q0998 NOSIG
  • 240720Z AUTO 15005KT CAVOK 03/01 Q0998 BECMG 21008KT
  • 240650Z AUTO 14006KT 120V180 9999 FEW047 03/00 Q0998 BECMG 20008KT

TAF TAF EDDH
Valide du 24 à 12h jusqu'au 25 à 18h UTC


241100Z 2412/2518 18009KT 9999 SCT035
PROB40
TEMPO 2413/2417 20015G25KT 4500 SHRA SCT014 BKN020CB
TEMPO 2423/2507 17004KT
PROB40
TEMPO 2510/2517 4500 SHRA SCT014 BKN020CB
BECMG 2512/2515 18004KT



MET'MAP, la Météo Aéronautique d'un coup d'oeil ! - Copyright ORBIFLY Décembre 2007 - Disclaimer

ORBIFLY MET'MAP TEAM :

Programmation & Développement : Alexandra Zaïnal
Sur une idée originale de : Baudouin d'Aumeries
Soutien technique & logistique : Manuel Goepfert
Assistance : Marc-Olivier Méhu




SOURCES & CREDITS :

   NOAA